sensor_id;sensor_type;location;lat;lon;timestamp;pressure;altitude;pressure_sealevel;temperature;humidity
49585;BME280;35491;49.142;9.210;2022-07-24T00:00:00;100084.88;;;24.14;57.26
49585;BME280;35491;49.142;9.210;2022-07-24T00:01:01;100084.31;;;24.12;57.55
49585;BME280;35491;49.142;9.210;2022-07-24T00:02:05;100086.19;;;24.11;57.36
49585;BME280;35491;49.142;9.210;2022-07-24T00:03:07;100091.91;;;24.10;57.80
49585;BME280;35491;49.142;9.210;2022-07-24T00:04:11;100087.13;;;24.05;57.86
49585;BME280;35491;49.142;9.210;2022-07-24T00:05:12;100093.06;;;24.02;57.89
49585;BME280;35491;49.142;9.210;2022-07-24T00:06:16;100100.63;;;24.00;58.06
49585;BME280;35491;49.142;9.210;2022-07-24T00:07:20;100096.47;;;23.97;57.86
49585;BME280;35491;49.142;9.210;2022-07-24T00:08:23;100095.28;;;23.93;58.34
49585;BME280;35491;49.142;9.210;2022-07-24T00:09:25;100091.56;;;23.88;58.47
49585;BME280;35491;49.142;9.210;2022-07-24T00:10:28;100099.38;;;23.84;58.53
49585;BME280;35491;49.142;9.210;2022-07-24T00:11:29;100087.41;;;23.85;58.29
49585;BME280;35491;49.142;9.210;2022-07-24T00:12:33;100089.91;;;23.87;58.00
49585;BME280;35491;49.142;9.210;2022-07-24T00:13:35;100097.47;;;23.84;58.15
49585;BME280;35491;49.142;9.210;2022-07-24T00:14:38;100094.50;;;23.86;58.02
49585;BME280;35491;49.142;9.210;2022-07-24T00:15:40;100095.81;;;23.83;58.49
49585;BME280;35491;49.142;9.210;2022-07-24T00:16:44;100095.44;;;23.80;58.41
49585;BME280;35491;49.142;9.210;2022-07-24T00:17:45;100090.22;;;23.78;58.46
49585;BME280;35491;49.142;9.210;2022-07-24T00:18:49;100096.75;;;23.77;58.47
49585;BME280;35491;49.142;9.210;2022-07-24T00:19:50;100104.31;;;23.75;58.63
49585;BME280;35491;49.142;9.210;2022-07-24T00:20:54;100095.53;;;23.73;58.38
49585;BME280;35491;49.142;9.210;2022-07-24T00:21:58;100099.81;;;23.69;58.53
49585;BME280;35491;49.142;9.210;2022-07-24T00:23:03;100104.28;;;23.63;58.58
49585;BME280;35491;49.142;9.210;2022-07-24T00:24:07;100095.25;;;23.63;58.94
49585;BME280;35491;49.142;9.210;2022-07-24T00:25:08;100097.16;;;23.62;58.68
49585;BME280;35491;49.142;9.210;2022-07-24T00:26:12;100089.78;;;23.63;58.94
49585;BME280;35491;49.142;9.210;2022-07-24T00:27:13;100087.66;;;23.65;58.58
49585;BME280;35491;49.142;9.210;2022-07-24T00:28:18;100093.13;;;23.65;58.71
49585;BME280;35491;49.142;9.210;2022-07-24T00:29:19;100090.41;;;23.65;58.85
49585;BME280;35491;49.142;9.210;2022-07-24T00:30:23;100085.03;;;23.58;59.13
49585;BME280;35491;49.142;9.210;2022-07-24T00:31:24;100091.66;;;23.50;59.68
49585;BME280;35491;49.142;9.210;2022-07-24T00:32:28;100089.50;;;23.52;58.96
49585;BME280;35491;49.142;9.210;2022-07-24T00:33:29;100083.22;;;23.52;58.81
49585;BME280;35491;49.142;9.210;2022-07-24T00:34:33;100091.78;;;23.56;58.92
49585;BME280;35491;49.142;9.210;2022-07-24T00:35:34;100088.59;;;23.59;58.93
49585;BME280;35491;49.142;9.210;2022-07-24T00:36:38;100088.34;;;23.60;58.61
49585;BME280;35491;49.142;9.210;2022-07-24T00:37:42;100085.63;;;23.60;58.78
49585;BME280;35491;49.142;9.210;2022-07-24T00:38:49;100091.09;;;23.60;58.73
49585;BME280;35491;49.142;9.210;2022-07-24T00:39:53;100091.09;;;23.60;58.88
49585;BME280;35491;49.142;9.210;2022-07-24T00:40:54;100094.06;;;23.59;59.10
49585;BME280;35491;49.142;9.210;2022-07-24T00:41:58;100088.59;;;23.59;59.08
49585;BME280;35491;49.142;9.210;2022-07-24T00:42:59;100088.59;;;23.59;58.95
49585;BME280;35491;49.142;9.210;2022-07-24T00:44:04;100083.13;;;23.59;58.93
49585;BME280;35491;49.142;9.210;2022-07-24T00:45:06;100084.19;;;23.58;58.97
49585;BME280;35491;49.142;9.210;2022-07-24T00:46:10;100085.03;;;23.58;58.93
49585;BME280;35491;49.142;9.210;2022-07-24T00:47:12;100085.88;;;23.59;58.79
49585;BME280;35491;49.142;9.210;2022-07-24T00:48:16;100081.22;;;23.59;58.80
49585;BME280;35491;49.142;9.210;2022-07-24T00:49:18;100092.75;;;23.61;58.79
49585;BME280;35491;49.142;9.210;2022-07-24T00:50:22;100079.34;;;23.60;58.88
49585;BME280;35491;49.142;9.210;2022-07-24T00:51:24;100084.19;;;23.58;58.92
49585;BME280;35491;49.142;9.210;2022-07-24T00:52:28;100082.78;;;23.55;58.90
49585;BME280;35491;49.142;9.210;2022-07-24T00:53:29;100087.38;;;23.55;58.89
49585;BME280;35491;49.142;9.210;2022-07-24T00:54:36;100086.72;;;23.41;60.23
49585;BME280;35491;49.142;9.210;2022-07-24T00:55:38;100075.13;;;23.27;61.11
49585;BME280;35491;49.142;9.210;2022-07-24T00:56:45;100081.94;;;23.17;61.02
49585;BME280;35491;49.142;9.210;2022-07-24T00:57:50;100078.13;;;23.00;61.83
49585;BME280;35491;49.142;9.210;2022-07-24T00:58:54;100087.72;;;22.84;62.62
49585;BME280;35491;49.142;9.210;2022-07-24T00:59:55;100089.03;;;22.81;62.36
49585;BME280;35491;49.142;9.210;2022-07-24T01:00:59;100077.81;;;22.71;62.93
49585;BME280;35491;49.142;9.210;2022-07-24T01:02:00;100080.44;;;22.59;63.10
49585;BME280;35491;49.142;9.210;2022-07-24T01:03:04;100079.88;;;22.50;63.67
49585;BME280;35491;49.142;9.210;2022-07-24T01:04:05;100082.88;;;22.42;64.13
49585;BME280;35491;49.142;9.210;2022-07-24T01:05:16;100090.44;;;22.40;64.20
49585;BME280;35491;49.142;9.210;2022-07-24T01:06:17;100087.34;;;22.29;64.64
49585;BME280;35491;49.142;9.210;2022-07-24T01:07:21;100088.06;;;22.18;64.75
49585;BME280;35491;49.142;9.210;2022-07-24T01:08:25;100092.88;;;22.16;65.02
49585;BME280;35491;49.142;9.210;2022-07-24T01:09:29;100091.59;;;22.19;65.05
49585;BME280;35491;49.142;9.210;2022-07-24T01:10:45;100093.50;;;22.18;65.08
49585;BME280;35491;49.142;9.210;2022-07-24T01:12:24;100092.88;;;22.16;64.78
49585;BME280;35491;49.142;9.210;2022-07-24T01:13:31;100087.09;;;22.06;65.39
49585;BME280;35491;49.142;9.210;2022-07-24T01:14:36;100099.25;;;22.03;65.62
49585;BME280;35491;49.142;9.210;2022-07-24T01:15:47;100089.66;;;22.01;65.64
49585;BME280;35491;49.142;9.210;2022-07-24T01:16:48;100098.41;;;22.03;65.75
49585;BME280;35491;49.142;9.210;2022-07-24T01:17:52;100092.41;;;21.94;65.89
49585;BME280;35491;49.142;9.210;2022-07-24T01:18:58;100088.69;;;21.88;66.18
49585;BME280;35491;49.142;9.210;2022-07-24T01:20:17;100093.06;;;21.89;66.07
49585;BME280;35491;49.142;9.210;2022-07-24T01:21:21;100092.56;;;21.99;65.50
49585;BME280;35491;49.142;9.210;2022-07-24T01:22:26;100089.84;;;21.99;65.85
49585;BME280;35491;49.142;9.210;2022-07-24T01:23:27;100089.22;;;21.97;65.62
49585;BME280;35491;49.142;9.210;2022-07-24T01:24:31;100082.81;;;21.91;65.99
49585;BME280;35491;49.142;9.210;2022-07-24T01:25:33;100091.00;;;21.85;66.28
49585;BME280;35491;49.142;9.210;2022-07-24T01:26:36;100091.56;;;21.93;66.02
49585;BME280;35491;49.142;9.210;2022-07-24T01:27:37;100093.22;;;21.94;65.97
49585;BME280;35491;49.142;9.210;2022-07-24T01:28:41;100089.69;;;21.94;66.19
49585;BME280;35491;49.142;9.210;2022-07-24T01:29:42;100087.78;;;21.94;66.02
49585;BME280;35491;49.142;9.210;2022-07-24T01:30:46;100088.84;;;21.93;65.93
49585;BME280;35491;49.142;9.210;2022-07-24T01:31:47;100085.06;;;21.94;65.98
49585;BME280;35491;49.142;9.210;2022-07-24T01:32:51;100086.19;;;21.87;66.25
49585;BME280;35491;49.142;9.210;2022-07-24T01:33:52;100088.03;;;21.93;66.18
49585;BME280;35491;49.142;9.210;2022-07-24T01:34:56;100088.81;;;22.00;65.99
49585;BME280;35491;49.142;9.210;2022-07-24T01:35:57;100089.81;;;22.06;65.58
49585;BME280;35491;49.142;9.210;2022-07-24T01:37:03;100096.31;;;22.05;65.44
49585;BME280;35491;49.142;9.210;2022-07-24T01:38:04;100088.34;;;22.10;65.43
49585;BME280;35491;49.142;9.210;2022-07-24T01:39:08;100089.78;;;22.12;64.83
49585;BME280;35491;49.142;9.210;2022-07-24T01:40:10;100088.34;;;22.10;65.02
49585;BME280;35491;49.142;9.210;2022-07-24T01:41:14;100089.31;;;22.16;64.96
49585;BME280;35491;49.142;9.210;2022-07-24T01:42:15;100093.06;;;22.21;64.95
49585;BME280;35491;49.142;9.210;2022-07-24T01:43:20;100085.38;;;22.11;65.19
49585;BME280;35491;49.142;9.210;2022-07-24T01:44:21;100090.88;;;22.05;65.47
49585;BME280;35491;49.142;9.210;2022-07-24T01:45:25;100089.44;;;22.02;65.65
49585;BME280;35491;49.142;9.210;2022-07-24T01:46:27;100089.00;;;22.05;65.64
49585;BME280;35491;49.142;9.210;2022-07-24T01:47:30;100086.31;;;21.99;65.54
49585;BME280;35491;49.142;9.210;2022-07-24T01:48:32;100089.69;;;21.94;66.12
49585;BME280;35491;49.142;9.210;2022-07-24T01:49:35;100080.94;;;21.85;66.36
49585;BME280;35491;49.142;9.210;2022-07-24T01:50:36;100090.81;;;21.79;66.41
49585;BME280;35491;49.142;9.210;2022-07-24T01:51:40;100088.53;;;21.76;66.84
49585;BME280;35491;49.142;9.210;2022-07-24T01:52:44;100091.03;;;21.78;66.55
49585;BME280;35491;49.142;9.210;2022-07-24T01:53:48;100087.69;;;21.76;66.75
49585;BME280;35491;49.142;9.210;2022-07-24T01:54:49;100086.06;;;21.68;66.59
49585;BME280;35491;49.142;9.210;2022-07-24T01:55:53;100093.13;;;21.76;66.54
49585;BME280;35491;49.142;9.210;2022-07-24T01:56:54;100085.81;;;21.76;66.25
49585;BME280;35491;49.142;9.210;2022-07-24T01:57:58;100085.22;;;21.68;66.55
49585;BME280;35491;49.142;9.210;2022-07-24T01:58:59;100089.66;;;21.62;66.78
49585;BME280;35491;49.142;9.210;2022-07-24T02:00:04;100091.53;;;21.55;67.27
49585;BME280;35491;49.142;9.210;2022-07-24T02:01:06;100096.13;;;21.54;67.13
49585;BME280;35491;49.142;9.210;2022-07-24T02:02:10;100096.56;;;21.51;67.26
49585;BME280;35491;49.142;9.210;2022-07-24T02:03:11;100092.81;;;21.52;67.41
49585;BME280;35491;49.142;9.210;2022-07-24T02:04:15;100085.47;;;21.53;67.45
49585;BME280;35491;49.142;9.210;2022-07-24T02:05:16;100101.97;;;21.64;67.08
49585;BME280;35491;49.142;9.210;2022-07-24T02:06:20;100080.56;;;21.75;66.23
49585;BME280;35491;49.142;9.210;2022-07-24T02:07:21;100092.09;;;21.77;66.61
49585;BME280;35491;49.142;9.210;2022-07-24T02:08:27;100082.09;;;21.71;66.68
49585;BME280;35491;49.142;9.210;2022-07-24T02:09:28;100089.78;;;21.74;66.58
49585;BME280;35491;49.142;9.210;2022-07-24T02:10:32;100087.47;;;21.77;66.33
49585;BME280;35491;49.142;9.210;2022-07-24T02:11:33;100084.13;;;21.82;65.78
49585;BME280;35491;49.142;9.210;2022-07-24T02:12:37;100088.25;;;21.91;65.59
49585;BME280;35491;49.142;9.210;2022-07-24T02:13:40;100080.25;;;21.96;65.22
49585;BME280;35491;49.142;9.210;2022-07-24T02:14:43;100085.03;;;22.01;65.25
49585;BME280;35491;49.142;9.210;2022-07-24T02:15:44;100087.53;;;22.03;65.27
49585;BME280;35491;49.142;9.210;2022-07-24T02:16:48;100083.09;;;22.08;65.10
49585;BME280;35491;49.142;9.210;2022-07-24T02:17:50;100084.75;;;22.09;64.85
49585;BME280;35491;49.142;9.210;2022-07-24T02:18:54;100083.94;;;22.09;64.80
49585;BME280;35491;49.142;9.210;2022-07-24T02:19:57;100085.81;;;22.08;64.76
49585;BME280;35491;49.142;9.210;2022-07-24T02:20:59;100084.16;;;22.07;64.81
49585;BME280;35491;49.142;9.210;2022-07-24T02:22:03;100089.59;;;22.07;64.85
49585;BME280;35491;49.142;9.210;2022-07-24T02:23:04;100085.81;;;22.08;64.33
49585;BME280;35491;49.142;9.210;2022-07-24T02:24:11;100086.03;;;22.07;64.58
49585;BME280;35491;49.142;9.210;2022-07-24T02:25:12;100091.28;;;22.02;64.74
49585;BME280;35491;49.142;9.210;2022-07-24T02:26:16;100096.56;;;21.96;65.30
49585;BME280;35491;49.142;9.210;2022-07-24T02:27:17;100083.66;;;21.85;65.70
49585;BME280;35491;49.142;9.210;2022-07-24T02:28:21;100088.53;;;21.76;66.28
49585;BME280;35491;49.142;9.210;2022-07-24T02:29:22;100089.41;;;21.70;66.20
49585;BME280;35491;49.142;9.210;2022-07-24T02:30:26;100093.81;;;21.64;66.72
49585;BME280;35491;49.142;9.210;2022-07-24T02:31:27;100093.22;;;21.62;66.75
49585;BME280;35491;49.142;9.210;2022-07-24T02:32:31;100102.00;;;21.58;66.79
49585;BME280;35491;49.142;9.210;2022-07-24T02:33:32;100096.56;;;21.51;67.15
49585;BME280;35491;49.142;9.210;2022-07-24T02:34:36;100087.16;;;21.47;67.17
49585;BME280;35491;49.142;9.210;2022-07-24T02:35:37;100090.34;;;21.44;67.02
49585;BME280;35491;49.142;9.210;2022-07-24T02:36:41;100092.44;;;21.42;67.13
49585;BME280;35491;49.142;9.210;2022-07-24T02:37:43;100091.19;;;21.38;66.92
49585;BME280;35491;49.142;9.210;2022-07-24T02:38:47;100083.66;;;21.40;66.79
49585;BME280;35491;49.142;9.210;2022-07-24T02:39:50;100087.84;;;21.35;67.06
49585;BME280;35491;49.142;9.210;2022-07-24T02:40:54;100096.84;;;21.36;67.31
49585;BME280;35491;49.142;9.210;2022-07-24T02:41:55;100095.41;;;21.33;66.98
49585;BME280;35491;49.142;9.210;2022-07-24T02:42:59;100102.28;;;21.36;66.89
49585;BME280;35491;49.142;9.210;2022-07-24T02:44:00;100101.63;;;21.41;67.09
49585;BME280;35491;49.142;9.210;2022-07-24T02:45:05;100091.97;;;21.45;66.67
49585;BME280;35491;49.142;9.210;2022-07-24T02:46:06;100094.53;;;21.40;66.91
49585;BME280;35491;49.142;9.210;2022-07-24T02:47:10;100095.16;;;21.35;67.67
49585;BME280;35491;49.142;9.210;2022-07-24T02:48:11;100091.19;;;21.31;68.03
49585;BME280;35491;49.142;9.210;2022-07-24T02:49:15;100094.16;;;21.29;68.14
49585;BME280;35491;49.142;9.210;2022-07-24T02:50:16;100089.97;;;21.27;68.58
49585;BME280;35491;49.142;9.210;2022-07-24T02:51:20;100088.72;;;21.23;68.60
49585;BME280;35491;49.142;9.210;2022-07-24T02:52:21;100092.91;;;21.25;68.35
49585;BME280;35491;49.142;9.210;2022-07-24T02:53:25;100092.91;;;21.25;68.71
49585;BME280;35491;49.142;9.210;2022-07-24T02:54:26;100092.91;;;21.25;68.70
49585;BME280;35491;49.142;9.210;2022-07-24T02:55:32;100093.13;;;21.24;69.46
49585;BME280;35491;49.142;9.210;2022-07-24T02:56:33;100098.78;;;21.22;69.53
49585;BME280;35491;49.142;9.210;2022-07-24T02:57:37;100093.56;;;21.21;69.80
49585;BME280;35491;49.142;9.210;2022-07-24T02:58:38;100085.19;;;21.22;69.76
49585;BME280;35491;49.142;9.210;2022-07-24T02:59:42;100096.91;;;21.16;70.00
49585;BME280;35491;49.142;9.210;2022-07-24T03:00:45;100102.56;;;21.14;70.17
49585;BME280;35491;49.142;9.210;2022-07-24T03:01:49;100096.72;;;21.11;70.71
49585;BME280;35491;49.142;9.210;2022-07-24T03:02:50;100103.19;;;21.03;70.58
49585;BME280;35491;49.142;9.210;2022-07-24T03:03:54;100102.59;;;21.01;70.68
49585;BME280;35491;49.142;9.210;2022-07-24T03:04:55;100099.66;;;21.02;70.77
49585;BME280;35491;49.142;9.210;2022-07-24T03:05:59;100098.81;;;21.02;70.50
49585;BME280;35491;49.142;9.210;2022-07-24T03:07:00;100104.47;;;21.00;71.04
49585;BME280;35491;49.142;9.210;2022-07-24T03:08:04;100107.81;;;21.02;70.77
49585;BME280;35491;49.142;9.210;2022-07-24T03:09:05;100098.81;;;21.02;70.90
49585;BME280;35491;49.142;9.210;2022-07-24T03:10:09;100101.75;;;21.07;70.71
49585;BME280;35491;49.142;9.210;2022-07-24T03:11:13;100096.94;;;21.09;70.18
49585;BME280;35491;49.142;9.210;2022-07-24T03:12:17;100104.44;;;21.14;69.96
49585;BME280;35491;49.142;9.210;2022-07-24T03:13:18;100098.38;;;21.12;70.25
49585;BME280;35491;49.142;9.210;2022-07-24T03:14:22;100103.19;;;21.10;70.84
49585;BME280;35491;49.142;9.210;2022-07-24T03:15:23;100101.97;;;21.06;70.92
49585;BME280;35491;49.142;9.210;2022-07-24T03:16:27;100108.44;;;21.04;70.87
49585;BME280;35491;49.142;9.210;2022-07-24T03:17:28;100108.84;;;21.01;71.11
49585;BME280;35491;49.142;9.210;2022-07-24T03:18:32;100104.06;;;21.03;71.04
49585;BME280;35491;49.142;9.210;2022-07-24T03:19:33;100106.13;;;21.01;71.23
49585;BME280;35491;49.142;9.210;2022-07-24T03:20:36;100107.41;;;21.06;71.05
49585;BME280;35491;49.142;9.210;2022-07-24T03:21:38;100113.47;;;21.01;71.11
49585;BME280;35491;49.142;9.210;2022-07-24T03:22:41;100110.53;;;20.96;71.77
49585;BME280;35491;49.142;9.210;2022-07-24T03:23:42;100103.66;;;20.93;71.71
49585;BME280;35491;49.142;9.210;2022-07-24T03:24:46;100110.53;;;20.96;71.78
49585;BME280;35491;49.142;9.210;2022-07-24T03:25:47;100109.72;;;20.95;71.90
49585;BME280;35491;49.142;9.210;2022-07-24T03:26:55;100114.31;;;20.88;72.28
49585;BME280;35491;49.142;9.210;2022-07-24T03:27:57;100109.72;;;20.82;72.45
49585;BME280;35491;49.142;9.210;2022-07-24T03:29:00;100109.72;;;20.82;72.55
49585;BME280;35491;49.142;9.210;2022-07-24T03:30:02;100112.22;;;20.83;72.02
49585;BME280;35491;49.142;9.210;2022-07-24T03:31:06;100116.00;;;20.82;72.60
49585;BME280;35491;49.142;9.210;2022-07-24T03:32:07;100107.22;;;20.87;72.04
49585;BME280;35491;49.142;9.210;2022-07-24T03:33:11;100112.84;;;20.85;71.79
49585;BME280;35491;49.142;9.210;2022-07-24T03:34:12;100113.69;;;20.86;71.97
49585;BME280;35491;49.142;9.210;2022-07-24T03:35:16;100112.03;;;20.78;71.75
49585;BME280;35491;49.142;9.210;2022-07-24T03:36:17;100113.91;;;20.78;72.08
49585;BME280;35491;49.142;9.210;2022-07-24T03:37:21;100115.56;;;20.72;72.42
49585;BME280;35491;49.142;9.210;2022-07-24T03:38:22;100112.22;;;20.70;72.36
49585;BME280;35491;49.142;9.210;2022-07-24T03:39:31;100116.59;;;20.71;71.90
49585;BME280;35491;49.142;9.210;2022-07-24T03:40:35;100115.34;;;20.67;72.07
49585;BME280;35491;49.142;9.210;2022-07-24T03:41:39;100120.81;;;20.73;71.74
49585;BME280;35491;49.142;9.210;2022-07-24T03:42:43;100111.00;;;20.79;71.12
49585;BME280;35491;49.142;9.210;2022-07-24T03:43:46;100120.38;;;20.83;70.79
49585;BME280;35491;49.142;9.210;2022-07-24T03:44:47;100119.13;;;20.86;70.36
49585;BME280;35491;49.142;9.210;2022-07-24T03:45:51;100115.34;;;20.94;70.26
49585;BME280;35491;49.142;9.210;2022-07-24T03:46:52;100117.88;;;20.95;69.84
49585;BME280;35491;49.142;9.210;2022-07-24T03:47:56;100117.00;;;21.01;69.60
49585;BME280;35491;49.142;9.210;2022-07-24T03:48:57;100120.34;;;21.03;69.19
49585;BME280;35491;49.142;9.210;2022-07-24T03:50:01;100119.31;;;21.04;69.09
49585;BME280;35491;49.142;9.210;2022-07-24T03:51:05;100120.78;;;21.00;68.81
49585;BME280;35491;49.142;9.210;2022-07-24T03:52:06;100116.38;;;20.93;69.28
49585;BME280;35491;49.142;9.210;2022-07-24T03:53:10;100118.09;;;20.87;69.31
49585;BME280;35491;49.142;9.210;2022-07-24T03:54:12;100113.69;;;20.86;69.29
49585;BME280;35491;49.142;9.210;2022-07-24T03:55:15;100119.31;;;20.84;69.09
49585;BME280;35491;49.142;9.210;2022-07-24T03:56:17;100119.34;;;20.78;69.38
49585;BME280;35491;49.142;9.210;2022-07-24T03:57:20;100125.19;;;20.75;69.51
49585;BME280;35491;49.142;9.210;2022-07-24T03:58:24;100119.31;;;20.64;69.92
49585;BME280;35491;49.142;9.210;2022-07-24T03:59:28;100121.41;;;20.62;70.70
49585;BME280;35491;49.142;9.210;2022-07-24T04:00:29;100130.59;;;20.61;70.58
49585;BME280;35491;49.142;9.210;2022-07-24T04:01:33;100131.84;;;20.58;70.44
49585;BME280;35491;49.142;9.210;2022-07-24T04:02:34;100124.56;;;20.52;71.21
49585;BME280;35491;49.142;9.210;2022-07-24T04:03:38;100139.38;;;20.50;71.24
49585;BME280;35491;49.142;9.210;2022-07-24T04:04:39;100137.06;;;20.47;71.17
49585;BME280;35491;49.142;9.210;2022-07-24T04:05:43;100133.72;;;20.45;71.11
49585;BME280;35491;49.142;9.210;2022-07-24T04:06:44;100142.91;;;20.44;71.27
49585;BME280;35491;49.142;9.210;2022-07-24T04:07:47;100139.56;;;20.41;71.80
49585;BME280;35491;49.142;9.210;2022-07-24T04:08:49;100141.66;;;20.39;71.69
49585;BME280;35491;49.142;9.210;2022-07-24T04:09:52;100133.06;;;20.36;71.88
49585;BME280;35491;49.142;9.210;2022-07-24T04:10:54;100136.88;;;20.35;71.92
49585;BME280;35491;49.142;9.210;2022-07-24T04:11:58;100140.19;;;20.37;72.20
49585;BME280;35491;49.142;9.210;2022-07-24T04:12:59;100138.94;;;20.33;72.71
49585;BME280;35491;49.142;9.210;2022-07-24T04:14:05;100145.19;;;20.26;73.05
49585;BME280;35491;49.142;9.210;2022-07-24T04:15:07;100145.19;;;20.20;73.75
49585;BME280;35491;49.142;9.210;2022-07-24T04:16:10;100143.69;;;20.17;73.52
49585;BME280;35491;49.142;9.210;2022-07-24T04:17:11;100141.84;;;20.18;73.46
49585;BME280;35491;49.142;9.210;2022-07-24T04:18:15;100145.38;;;20.18;73.75
49585;BME280;35491;49.142;9.210;2022-07-24T04:19:17;100149.97;;;20.18;73.30
49585;BME280;35491;49.142;9.210;2022-07-24T04:20:20;100147.66;;;20.15;73.33
49585;BME280;35491;49.142;9.210;2022-07-24T04:21:22;100146.41;;;20.10;73.14
49585;BME280;35491;49.142;9.210;2022-07-24T04:22:26;100149.34;;;20.16;73.24
49585;BME280;35491;49.142;9.210;2022-07-24T04:23:30;100144.56;;;20.18;72.88
49585;BME280;35491;49.142;9.210;2022-07-24T04:24:31;100150.81;;;20.25;72.76
49585;BME280;35491;49.142;9.210;2022-07-24T04:25:34;100155.22;;;20.26;72.29
49585;BME280;35491;49.142;9.210;2022-07-24T04:26:36;100143.50;;;20.19;72.31
49585;BME280;35491;49.142;9.210;2022-07-24T04:27:43;100150.19;;;20.23;72.29
49585;BME280;35491;49.142;9.210;2022-07-24T04:28:44;100147.91;;;20.20;72.14
49585;BME280;35491;49.142;9.210;2022-07-24T04:29:50;100153.53;;;20.25;71.82
49585;BME280;35491;49.142;9.210;2022-07-24T04:30:51;100162.72;;;20.24;71.82
49585;BME280;35491;49.142;9.210;2022-07-24T04:31:55;100157.09;;;20.19;71.79
49585;BME280;35491;49.142;9.210;2022-07-24T04:32:56;100154.38;;;20.19;71.67
49585;BME280;35491;49.142;9.210;2022-07-24T04:34:00;100156.84;;;20.14;71.85
49585;BME280;35491;49.142;9.210;2022-07-24T04:35:01;100154.34;;;20.12;71.85
49585;BME280;35491;49.142;9.210;2022-07-24T04:36:05;100156.84;;;20.14;72.11
49585;BME280;35491;49.142;9.210;2022-07-24T04:37:06;100161.84;;;20.10;71.88
49585;BME280;35491;49.142;9.210;2022-07-24T04:38:10;100154.34;;;20.12;71.70
49585;BME280;35491;49.142;9.210;2022-07-24T04:39:11;100158.53;;;20.15;71.87
49585;BME280;35491;49.142;9.210;2022-07-24T04:40:15;100155.63;;;20.16;71.71
49585;BME280;35491;49.142;9.210;2022-07-24T04:41:16;100156.03;;;20.20;71.53
49585;BME280;35491;49.142;9.210;2022-07-24T04:42:20;100157.28;;;20.24;71.24
49585;BME280;35491;49.142;9.210;2022-07-24T04:43:21;100160.63;;;20.26;70.92
49585;BME280;35491;49.142;9.210;2022-07-24T04:44:24;100157.53;;;20.29;71.15
49585;BME280;35491;49.142;9.210;2022-07-24T04:45:28;100156.47;;;20.30;70.92
49585;BME280;35491;49.142;9.210;2022-07-24T04:46:32;100159.81;;;20.32;70.80
49585;BME280;35491;49.142;9.210;2022-07-24T04:47:36;100155.22;;;20.33;70.72
49585;BME280;35491;49.142;9.210;2022-07-24T04:48:37;100160.22;;;20.36;70.26
49585;BME280;35491;49.142;9.210;2022-07-24T04:49:41;100153.78;;;20.30;70.19
49585;BME280;35491;49.142;9.210;2022-07-24T04:50:42;100153.53;;;20.25;70.63
49585;BME280;35491;49.142;9.210;2022-07-24T04:51:46;100151.47;;;20.27;70.34
49585;BME280;35491;49.142;9.210;2022-07-24T04:52:47;100161.91;;;20.30;70.75
49585;BME280;35491;49.142;9.210;2022-07-24T04:53:51;100160.41;;;20.27;70.29
49585;BME280;35491;49.142;9.210;2022-07-24T04:54:53;100158.13;;;20.31;70.25
49585;BME280;35491;49.142;9.210;2022-07-24T04:55:57;100159.41;;;20.35;69.77
49585;BME280;35491;49.142;9.210;2022-07-24T04:56:59;100157.72;;;20.34;69.93
49585;BME280;35491;49.142;9.210;2022-07-24T04:58:02;100162.31;;;20.40;69.57
49585;BME280;35491;49.142;9.210;2022-07-24T04:59:03;100164.84;;;20.42;69.86
49585;BME280;35491;49.142;9.210;2022-07-24T05:00:08;100167.97;;;20.46;69.76
49585;BME280;35491;49.142;9.210;2022-07-24T05:01:13;100161.69;;;20.45;69.81
49585;BME280;35491;49.142;9.210;2022-07-24T05:02:17;100160.03;;;20.37;69.94
49585;BME280;35491;49.142;9.210;2022-07-24T05:03:18;100168.19;;;20.37;70.15
49585;BME280;35491;49.142;9.210;2022-07-24T05:04:21;100166.94;;;20.40;69.82
49585;BME280;35491;49.142;9.210;2022-07-24T05:05:23;100172.78;;;20.44;69.59
49585;BME280;35491;49.142;9.210;2022-07-24T05:06:26;100166.94;;;20.47;69.38
49585;BME280;35491;49.142;9.210;2022-07-24T05:07:28;100171.97;;;20.50;69.60
49585;BME280;35491;49.142;9.210;2022-07-24T05:08:39;100163.59;;;20.51;69.33
49585;BME280;35491;49.142;9.210;2022-07-24T05:09:41;100170.72;;;20.59;69.28
49585;BME280;35491;49.142;9.210;2022-07-24T05:56:52;100149.25;;;21.63;66.17
49585;BME280;35491;49.142;9.210;2022-07-24T05:57:55;100153.00;;;21.69;66.13
49585;BME280;35491;49.142;9.210;2022-07-24T05:58:59;100152.59;;;21.72;65.94
49585;BME280;35491;49.142;9.210;2022-07-24T06:00:00;100149.00;;;21.78;65.73
49585;BME280;35491;49.142;9.210;2022-07-24T06:01:04;100144.59;;;21.77;65.91
49585;BME280;35491;49.142;9.210;2022-07-24T06:02:05;100149.69;;;21.67;66.32
49585;BME280;35491;49.142;9.210;2022-07-24T06:03:09;100148.84;;;21.66;66.09
49585;BME280;35491;49.142;9.210;2022-07-24T06:04:10;100153.22;;;21.68;66.08
49585;BME280;35491;49.142;9.210;2022-07-24T06:05:14;100146.97;;;21.67;66.16
49585;BME280;35491;49.142;9.210;2022-07-24T06:06:15;100153.47;;;21.59;66.24
49585;BME280;35491;49.142;9.210;2022-07-24T06:07:19;100153.47;;;21.59;66.54
49585;BME280;35491;49.142;9.210;2022-07-24T06:08:20;100154.28;;;21.66;66.45
49585;BME280;35491;49.142;9.210;2022-07-24T06:09:24;100155.56;;;21.64;66.05
49585;BME280;35491;49.142;9.210;2022-07-24T06:10:25;100153.66;;;21.58;66.27
49585;BME280;35491;49.142;9.210;2022-07-24T06:11:29;100149.91;;;21.52;66.54
49585;BME280;35491;49.142;9.210;2022-07-24T06:12:33;100152.63;;;21.52;66.47
49585;BME280;35491;49.142;9.210;2022-07-24T06:13:36;100158.03;;;21.65;66.28
49585;BME280;35491;49.142;9.210;2022-07-24T06:14:38;100157.38;;;21.77;65.82
49585;BME280;35491;49.142;9.210;2022-07-24T06:15:41;100151.25;;;21.88;65.42